Time;durP1;ratioP1;P1;durP2;ratioP2;P2;SDS_P1;SDS_P2;PMS_P1;PMS_P2;Temp;Humidity;BMP_temperature;BMP_pressure;BME280_temperature;BME280_humidity;BME280_pressure;Samples;Min_cycle;Max_cycle;Signal;HPM_P1;HPM_P2
2022/05/19 00:01:32;;;;;;;5.72;4.25;;;;;;;18.19;55.73;101845.28;5025282;28;20236;-54
2022/05/19 00:04:00;;;;;;;6.47;5.47;;;;;;;17.93;56.56;101835.88;5016784;28;20298;-54
2022/05/19 00:06:26;;;;;;;8.57;5.05;;;;;;;17.96;56.68;101835.84;5024324;28;20601;-52
2022/05/19 00:08:53;;;;;;;4.97;4.57;;;;;;;17.94;56.59;101835.00;5016406;28;20781;-52
2022/05/19 00:11:24;;;;;;;5.00;4.60;;;;;;;17.95;56.77;101836.75;5020653;28;20788;-52
2022/05/19 00:13:50;;;;;;;5.53;4.32;;;;;;;17.93;56.74;101840.31;5019643;28;20248;-51
2022/05/19 00:16:17;;;;;;;6.00;5.25;;;;;;;17.87;57.22;101833.34;5024922;28;20236;-53
2022/05/19 00:18:43;;;;;;;4.72;4.32;;;;;;;17.80;57.74;101847.59;5022058;28;20228;-52
2022/05/19 00:21:11;;;;;;;4.93;4.53;;;;;;;17.74;57.70;101839.66;5013011;28;20240;-53
2022/05/19 00:23:37;;;;;;;5.18;4.78;;;;;;;17.80;57.76;101836.97;5021143;28;20338;-52
2022/05/19 00:26:04;;;;;;;5.00;4.50;;;;;;;17.65;58.24;101830.94;5027006;28;20651;-53
2022/05/19 00:28:30;;;;;;;5.40;4.90;;;;;;;17.82;58.18;101832.50;5016931;28;20302;-52
2022/05/19 00:30:57;;;;;;;5.70;5.20;;;;;;;17.64;58.36;101830.94;5024336;28;20256;-52
2022/05/19 00:33:23;;;;;;;4.50;4.20;;;;;;;17.61;58.66;101826.53;5022706;28;20236;-52
2022/05/19 00:35:50;;;;;;;5.70;4.45;;;;;;;17.52;59.19;101829.31;5026768;28;20224;-51
2022/05/19 00:38:17;;;;;;;5.10;4.70;;;;;;;17.56;59.35;101828.38;5015050;28;20666;-53
2022/05/19 00:40:49;;;;;;;5.57;4.88;;;;;;;17.42;59.87;101836.50;5018383;28;20240;-52
2022/05/19 00:43:16;;;;;;;4.82;4.40;;;;;;;17.65;59.14;101824.72;5018831;28;20255;-52
2022/05/19 00:45:47;;;;;;;5.20;4.80;;;;;;;17.46;59.87;101821.41;5024110;28;20649;-52
2022/05/19 00:48:18;;;;;;;5.22;4.80;;;;;;;17.36;60.50;101825.09;5015402;28;20305;-53
2022/05/19 00:50:47;;;;;;;5.65;4.35;;;;;;;17.36;60.13;101825.97;5026227;28;20256;-51
2022/05/19 00:53:21;;;;;;;5.57;5.07;;;;;;;17.33;60.45;101825.13;5016674;28;20241;-52
2022/05/19 00:55:48;;;;;;;4.90;4.57;;;;;;;17.26;60.62;101828.72;5023651;28;20229;-53
2022/05/19 00:58:18;;;;;;;6.03;5.45;;;;;;;17.20;61.08;101821.75;5025010;28;20241;-52
2022/05/19 01:00:45;;;;;;;5.82;5.25;;;;;;;17.20;61.00;101823.47;5029745;28;21061;-52
2022/05/19 01:03:14;;;;;;;8.32;5.13;;;;;;;17.27;60.93;101822.53;5027468;28;20228;-53
2022/05/19 01:05:44;;;;;;;6.82;4.68;;;;;;;17.09;61.59;101826.25;5017988;28;20903;-52
2022/05/19 01:08:12;;;;;;;5.45;4.90;;;;;;;17.24;61.36;101827.88;5031519;28;20232;-52
2022/05/19 01:10:40;;;;;;;6.00;5.50;;;;;;;17.27;61.23;101818.13;5028434;28;20739;-52
2022/05/19 01:13:08;;;;;;;5.93;5.43;;;;;;;17.11;61.91;101817.38;5025314;28;20236;-53
2022/05/19 01:15:36;;;;;;;5.53;5.07;;;;;;;17.06;61.98;101816.56;5025906;28;20240;-52
2022/05/19 01:18:02;;;;;;;5.07;4.43;;;;;;;16.93;62.39;101814.94;5024281;28;20228;-54
2022/05/19 01:20:29;;;;;;;5.35;4.80;;;;;;;16.95;62.35;101818.44;5026384;28;20738;-51
2022/05/19 01:22:59;;;;;;;4.75;4.45;;;;;;;16.99;62.46;101812.22;5030598;28;20256;-53
2022/05/19 01:25:35;;;;;;;5.78;5.18;;;;;;;16.90;62.68;101809.66;5020860;28;20338;-52
2022/05/19 01:28:03;;;;;;;5.53;4.97;;;;;;;17.02;62.35;101804.22;5024980;28;20279;-53
2022/05/19 01:30:30;;;;;;;5.25;4.78;;;;;;;16.97;62.57;101806.03;5023304;28;20718;-53
2022/05/19 01:32:56;;;;;;;5.35;4.93;;;;;;;16.84;62.98;101817.66;5025937;28;20237;-53
2022/05/19 01:35:23;;;;;;;5.35;4.88;;;;;;;16.87;63.09;101815.00;5025830;28;20263;-52
2022/05/19 01:37:50;;;;;;;5.38;4.88;;;;;;;16.84;63.20;101815.00;5012382;28;20775;-54
2022/05/19 01:40:28;;;;;;;5.32;4.93;;;;;;;16.77;63.29;101814.19;5017691;28;20245;-53
2022/05/19 01:43:04;;;;;;;5.63;5.22;;;;;;;16.64;64.03;101808.09;5019514;28;20714;-53
2022/05/19 01:45:40;;;;;;;6.43;4.80;;;;;;;16.63;64.18;101808.97;5027185;28;20236;-50
2022/05/19 01:48:11;;;;;;;6.25;5.65;;;;;;;16.73;63.65;101804.47;5020124;28;20290;-53
2022/05/19 01:50:40;;;;;;;8.93;4.90;;;;;;;16.64;63.99;101804.56;5026240;28;20294;-53
2022/05/19 01:53:09;;;;;;;5.30;4.80;;;;;;;16.74;63.62;101802.69;5027148;28;20271;-53
2022/05/19 01:55:42;;;;;;;5.65;5.00;;;;;;;16.75;63.80;101804.50;5028628;28;20240;-52
2022/05/19 01:58:15;;;;;;;6.97;5.22;;;;;;;16.63;63.87;101801.03;5022517;28;20231;-52
2022/05/19 02:00:42;;;;;;;6.30;5.63;;;;;;;16.70;63.88;101797.41;5026114;28;20232;-52
2022/05/19 02:03:15;;;;;;;7.43;5.60;;;;;;;16.76;63.59;101803.59;5015912;28;20232;-53
2022/05/19 02:05:45;;;;;;;5.40;4.90;;;;;;;16.65;64.15;101804.56;5030323;28;20898;-52
2022/05/19 02:08:16;;;;;;;5.22;4.82;;;;;;;16.59;64.35;101798.41;5022595;28;20243;-53
2022/05/19 02:10:48;;;;;;;8.13;5.15;;;;;;;16.52;64.47;101802.91;5026839;28;20785;-53
2022/05/19 02:13:16;;;;;;;5.07;4.57;;;;;;;16.51;64.87;101806.44;5025381;28;20658;-53
2022/05/19 02:15:46;;;;;;;4.88;4.40;;;;;;;16.28;65.08;101809.25;5022612;28;20252;-51
2022/05/19 02:18:12;;;;;;;5.38;4.88;;;;;;;16.28;65.50;101806.59;5027021;28;20242;-52
2022/05/19 02:20:40;;;;;;;4.80;4.40;;;;;;;16.34;65.21;101800.41;5026225;28;20290;-52
2022/05/19 02:23:06;;;;;;;5.40;4.90;;;;;;;16.39;65.03;101795.94;5018528;28;20754;-53
2022/05/19 02:25:36;;;;;;;5.20;4.80;;;;;;;16.30;65.53;101798.66;5019739;28;20318;-52
2022/05/19 02:28:04;;;;;;;5.38;4.43;;;;;;;16.38;64.96;101794.19;5018701;28;20315;-52
2022/05/19 02:30:34;;;;;;;5.00;4.55;;;;;;;16.34;64.99;101798.63;5026055;28;20236;-52
2022/05/19 02:33:01;;;;;;;5.70;4.70;;;;;;;16.43;64.17;101795.91;5022119;28;20240;-52
2022/05/19 02:35:28;;;;;;;5.10;4.60;;;;;;;16.35;64.45;101799.50;5020147;28;20237;-51
2022/05/19 02:37:55;;;;;;;5.90;4.97;;;;;;;16.18;66.11;101797.88;5021738;28;20296;-51
2022/05/19 02:40:24;;;;;;;7.65;4.78;;;;;;;16.18;64.99;101792.56;5019989;28;20741;-51
2022/05/19 02:42:51;;;;;;;5.60;5.13;;;;;;;16.26;65.11;101794.28;5019075;28;20731;-54
2022/05/19 02:45:21;;;;;;;5.75;4.88;;;;;;;16.12;65.67;101795.25;5024175;28;20241;-52
2022/05/19 02:47:49;;;;;;;7.13;4.55;;;;;;;16.08;65.87;101790.88;5028950;28;20730;-53
2022/05/19 02:50:17;;;;;;;5.38;4.60;;;;;;;16.10;64.89;101791.72;5017621;28;20712;-52
2022/05/19 02:52:43;;;;;;;5.03;4.53;;;;;;;16.12;66.60;101795.25;5021745;28;20649;-52
2022/05/19 02:55:10;;;;;;;5.53;4.30;;;;;;;16.13;64.78;101794.34;5027521;28;20286;-51
2022/05/19 02:57:37;;;;;;;5.40;4.85;;;;;;;16.06;65.92;101797.94;5019411;28;20294;-54
2022/05/19 03:00:07;;;;;;;8.18;4.95;;;;;;;16.06;65.01;101797.94;5023678;28;20240;-53
2022/05/19 03:02:33;;;;;;;8.07;4.03;;;;;;;16.12;65.35;101803.22;5025756;28;20714;-52
2022/05/19 03:05:03;;;;;;;6.78;4.38;;;;;;;16.07;65.51;101794.38;5019937;28;20240;-53
2022/05/19 03:07:29;;;;;;;4.60;4.20;;;;;;;16.16;64.65;101798.75;5021659;28;20729;-52
2022/05/19 03:09:55;;;;;;;7.57;5.18;;;;;;;16.06;65.07;101799.72;5026376;28;20243;-52
2022/05/19 03:12:22;;;;;;;4.68;4.28;;;;;;;16.16;64.21;101799.63;5023293;28;20630;-51
2022/05/19 03:14:48;;;;;;;4.88;4.47;;;;;;;16.10;64.25;101798.81;5028824;28;20660;-53
2022/05/19 03:17:14;;;;;;;4.97;4.55;;;;;;;15.99;64.86;101809.47;5027987;28;20302;-53
2022/05/19 03:19:41;;;;;;;5.35;3.78;;;;;;;16.00;64.97;101811.22;5011133;28;20257;-53
2022/05/19 03:22:09;;;;;;;4.75;4.35;;;;;;;15.96;64.90;101806.84;5026874;28;20290;-53
2022/05/19 03:24:36;;;;;;;4.75;4.35;;;;;;;15.89;65.37;101805.97;5024947;28;20710;-53
2022/05/19 03:27:02;;;;;;;4.13;3.83;;;;;;;15.95;64.90;101810.38;5016976;28;20236;-52
2022/05/19 03:29:29;;;;;;;5.28;3.67;;;;;;;15.96;64.69;101807.72;5025121;28;20726;-52
2022/05/19 03:31:55;;;;;;;5.20;3.83;;;;;;;15.97;64.67;101804.19;5026261;28;20831;-53
2022/05/19 03:34:21;;;;;;;5.80;4.82;;;;;;;15.90;65.93;101812.16;5022703;28;20649;-53
2022/05/19 03:36:49;;;;;;;4.95;4.10;;;;;;;15.78;66.21;101804.28;5021285;28;20290;-53
2022/05/19 03:39:18;;;;;;;4.75;4.35;;;;;;;15.87;65.18;101807.78;5019200;28;20317;-53
2022/05/19 03:41:44;;;;;;;5.25;4.75;;;;;;;15.70;65.72;101804.34;5026836;28;20809;-52
2022/05/19 03:44:11;;;;;;;6.20;4.38;;;;;;;15.78;66.16;101812.25;5030790;28;20236;-50
2022/05/19 03:46:38;;;;;;;4.88;4.38;;;;;;;15.85;65.96;101808.66;5028527;28;20233;-53
2022/05/19 03:49:05;;;;;;;4.72;4.40;;;;;;;15.84;65.73;101809.56;5019676;28;20244;-53
2022/05/19 03:51:33;;;;;;;5.35;4.85;;;;;;;15.79;65.90;101808.69;5029697;28;20233;-52
2022/05/19 03:54:00;;;;;;;4.25;3.95;;;;;;;15.86;65.17;101811.28;5017024;28;20239;-53
2022/05/19 03:56:27;;;;;;;5.28;4.80;;;;;;;15.84;65.29;101814.88;5025788;28;20224;-53
2022/05/19 03:58:54;;;;;;;4.15;3.75;;;;;;;15.79;66.69;101806.91;5025744;28;20240;-53
2022/05/19 04:01:21;;;;;;;4.70;4.15;;;;;;;15.73;65.94;101806.97;5033055;28;20301;-53
2022/05/19 04:03:49;;;;;;;5.18;4.05;;;;;;;15.90;65.64;101804.22;5025558;28;20287;-53
2022/05/19 04:06:15;;;;;;;5.10;4.55;;;;;;;15.84;65.48;101798.97;5026446;28;20287;-53
2022/05/19 04:08:42;;;;;;;6.88;4.85;;;;;;;15.82;65.30;101808.69;5025912;28;20285;-56
2022/05/19 04:11:08;;;;;;;5.20;4.70;;;;;;;15.83;65.22;101803.41;5024938;28;20435;-53
2022/05/19 04:13:36;;;;;;;6.65;4.70;;;;;;;15.79;66.32;101804.28;5024568;28;20431;-52
2022/05/19 04:16:02;;;;;;;5.53;4.43;;;;;;;15.88;64.35;101808.66;5013797;28;20224;-52
2022/05/19 04:18:29;;;;;;;4.60;4.20;;;;;;;15.91;64.41;101798.94;5016404;28;20518;-53
2022/05/19 04:20:55;;;;;;;4.53;4.10;;;;;;;15.93;64.27;101813.03;5013356;28;20240;-52
2022/05/19 04:23:22;;;;;;;6.22;4.55;;;;;;;15.79;64.47;101800.75;5024099;28;20264;-52
2022/05/19 04:25:48;;;;;;;5.28;4.78;;;;;;;15.83;65.46;101800.75;5027366;28;20480;-52
2022/05/19 04:28:15;;;;;;;6.50;5.03;;;;;;;15.86;65.03;101808.66;5030792;28;20956;-53
2022/05/19 04:30:42;;;;;;;6.18;4.63;;;;;;;15.79;64.86;101798.09;5030426;28;20252;-52
2022/05/19 04:33:09;;;;;;;4.47;4.07;;;;;;;15.93;64.97;101801.56;5032350;28;20409;-53
2022/05/19 04:35:36;;;;;;;4.90;4.50;;;;;;;15.91;64.22;101803.34;5023586;28;20241;-53
2022/05/19 04:38:06;;;;;;;5.80;5.00;;;;;;;16.07;64.47;101799.69;5030902;28;20426;-52
2022/05/19 04:40:36;;;;;;;7.70;5.15;;;;;;;16.01;64.72;101805.06;5022323;28;20431;-52
2022/05/19 04:43:03;;;;;;;5.18;4.25;;;;;;;16.09;63.75;101800.56;5022634;28;20231;-53
2022/05/19 04:45:30;;;;;;;5.13;4.63;;;;;;;16.01;63.76;101804.19;5023693;28;20232;-51
2022/05/19 04:47:58;;;;;;;6.65;5.13;;;;;;;15.91;64.64;101806.88;5022061;28;20228;-52
2022/05/19 04:50:24;;;;;;;5.22;4.72;;;;;;;16.02;64.32;101800.63;5013639;28;20995;-52
2022/05/19 04:52:50;;;;;;;5.80;4.82;;;;;;;15.96;64.14;101796.25;5024399;28;20728;-54
2022/05/19 04:55:17;;;;;;;5.53;5.03;;;;;;;15.94;65.13;101803.34;5025908;28;20646;-51
2022/05/19 04:57:44;;;;;;;6.57;4.25;;;;;;;16.16;63.82;101804.94;5025474;28;20271;-52
2022/05/19 05:00:13;;;;;;;7.20;4.57;;;;;;;16.13;64.02;101812.03;5024991;28;20236;-53
2022/05/19 05:02:40;;;;;;;4.38;3.95;;;;;;;16.24;63.67;101807.53;5026312;28;20229;-51
2022/05/19 05:05:09;;;;;;;6.90;5.00;;;;;;;16.22;63.41;101815.50;5020879;28;20237;-54
2022/05/19 05:07:36;;;;;;;5.57;4.53;;;;;;;16.30;63.04;101806.63;5013360;28;20490;-53
2022/05/19 05:10:03;;;;;;;4.80;4.25;;;;;;;16.43;62.77;101806.50;5020381;28;20723;-53
2022/05/19 05:12:30;;;;;;;10.48;4.72;;;;;;;16.44;62.85;101807.38;5019315;28;20241;-51
2022/05/19 05:14:56;;;;;;;6.43;4.65;;;;;;;16.58;62.09;101808.16;5025007;28;20331;-51
2022/05/19 05:17:23;;;;;;;6.60;4.30;;;;;;;16.54;62.90;101808.19;5022301;28;20235;-54
2022/05/19 05:19:49;;;;;;;5.65;4.68;;;;;;;16.56;63.85;101806.41;5008893;28;20295;-52
2022/05/19 05:22:17;;;;;;;5.10;4.25;;;;;;;16.56;62.62;101815.22;5020529;28;20706;-53
2022/05/19 05:24:43;;;;;;;4.80;4.40;;;;;;;16.65;62.77;101809.84;5009689;28;20233;-53
2022/05/19 05:27:10;;;;;;;5.38;4.28;;;;;;;16.87;61.46;101813.22;5019347;28;20232;-51
2022/05/19 05:29:36;;;;;;;4.88;3.97;;;;;;;16.93;61.20;101810.50;5023509;28;20714;-52
2022/05/19 05:32:03;;;;;;;6.70;3.53;;;;;;;16.94;61.22;101811.38;5017282;28;20233;-52
2022/05/19 05:34:29;;;;;;;5.63;4.45;;;;;;;16.94;61.69;101806.94;5024971;28;20235;-52
2022/05/19 05:36:56;;;;;;;5.05;4.32;;;;;;;17.03;61.17;101816.59;5012927;28;20236;-52
2022/05/19 05:39:23;;;;;;;4.97;4.03;;;;;;;17.05;61.58;101813.91;5025365;28;20264;-53
2022/05/19 05:41:50;;;;;;;4.28;3.90;;;;;;;17.12;61.61;101815.63;5021086;28;20252;-53
2022/05/19 05:44:16;;;;;;;6.80;5.22;;;;;;;17.25;60.50;101816.38;5028001;28;20255;-52
2022/05/19 05:46:44;;;;;;;5.65;4.32;;;;;;;17.29;60.62;101823.41;5025935;28;20691;-52
2022/05/19 05:49:11;;;;;;;8.18;4.75;;;;;;;17.28;60.65;101819.00;5024290;28;20233;-53
2022/05/19 05:51:37;;;;;;;5.47;4.95;;;;;;;17.30;60.65;101819.84;5016746;28;20666;-51
2022/05/19 05:54:04;;;;;;;7.55;4.03;;;;;;;17.43;60.08;101818.81;5025576;28;20256;-54
2022/05/19 05:56:31;;;;;;;5.18;4.45;;;;;;;17.44;60.27;101824.97;5021373;28;20232;-53
2022/05/19 05:58:58;;;;;;;6.22;4.70;;;;;;;17.33;60.24;101815.38;5014517;28;20260;-51
2022/05/19 06:01:24;;;;;;;4.72;4.20;;;;;;;17.40;60.57;101814.41;5023810;28;20715;-53
2022/05/19 06:03:51;;;;;;;5.32;4.35;;;;;;;17.38;60.97;101813.56;5020165;28;20295;-52
2022/05/19 06:06:18;;;;;;;5.15;4.43;;;;;;;17.47;60.59;101817.88;5032686;28;20232;-56
2022/05/19 06:08:44;;;;;;;4.78;4.38;;;;;;;17.50;60.75;101828.44;5028248;28;20243;-51
2022/05/19 06:11:11;;;;;;;4.13;3.72;;;;;;;17.55;60.58;101821.31;5026103;28;20294;-53
2022/05/19 06:13:39;;;;;;;5.82;5.30;;;;;;;17.54;61.11;101819.53;5028379;28;20243;-52
2022/05/19 06:16:06;;;;;;;7.03;4.97;;;;;;;17.62;60.50;101817.69;5021851;28;20228;-53
2022/05/19 06:18:32;;;;;;;9.88;6.32;;;;;;;17.62;60.89;101819.47;5024097;28;20711;-52
2022/05/19 06:20:58;;;;;;;5.10;4.60;;;;;;;17.70;60.69;101819.38;5026148;28;20247;-51
2022/05/19 06:23:25;;;;;;;6.10;5.07;;;;;;;17.80;60.60;101815.72;5022174;28;20995;-51
2022/05/19 06:25:51;;;;;;;6.05;4.82;;;;;;;17.88;60.73;101822.69;5019820;28;20354;-52
2022/05/19 06:28:18;;;;;;;6.68;5.25;;;;;;;18.03;60.40;101818.91;5023043;28;20259;-53
2022/05/19 06:30:46;;;;;;;9.50;4.88;;;;;;;18.07;60.73;101819.75;5023936;28;20288;-52
2022/05/19 06:33:16;;;;;;;7.85;5.18;;;;;;;18.18;59.93;101815.19;5025110;28;20228;-54
2022/05/19 06:35:42;;;;;;;5.18;4.68;;;;;;;18.50;59.12;101814.66;5019142;28;20247;-52
2022/05/19 06:38:09;;;;;;;7.68;5.38;;;;;;;18.34;59.74;101819.34;5022462;28;20291;-54
2022/05/19 06:40:35;;;;;;;6.38;4.88;;;;;;;18.45;59.00;101816.50;5023344;28;20244;-52
2022/05/19 06:43:07;;;;;;;5.40;4.93;;;;;;;18.53;59.10;101808.38;5012022;28;20323;-53
2022/05/19 06:45:34;;;;;;;10.45;5.32;;;;;;;18.55;59.43;101806.59;5026652;28;20233;-57
2022/05/19 06:48:01;;;;;;;7.60;4.93;;;;;;;18.49;59.64;101807.56;5027354;28;20326;-52
2022/05/19 06:50:28;;;;;;;6.55;5.40;;;;;;;18.77;58.84;101807.13;5024080;28;20283;-52
2022/05/19 06:53:00;;;;;;;8.13;5.00;;;;;;;18.79;58.54;101810.66;5024011;28;20236;-52
2022/05/19 06:55:27;;;;;;;6.03;5.32;;;;;;;18.80;58.45;101796.44;5022672;28;20280;-52
2022/05/19 06:57:54;;;;;;;5.20;4.80;;;;;;;18.78;58.87;101792.94;5020566;28;20240;-52
2022/05/19 07:00:22;;;;;;;5.38;4.88;;;;;;;19.00;58.17;101788.97;5016912;28;20248;-51
2022/05/19 07:02:50;;;;;;;4.68;4.28;;;;;;;19.10;58.29;101788.78;5019352;28;20758;-53
2022/05/19 07:05:20;;;;;;;4.97;4.45;;;;;;;19.19;58.28;101792.13;5018122;28;20287;-52
2022/05/19 07:07:46;;;;;;;6.30;5.30;;;;;;;19.19;57.84;101791.25;5013527;28;20233;-53
2022/05/19 07:10:14;;;;;;;5.20;4.70;;;;;;;19.38;57.41;101784.66;5025022;28;20224;-53
2022/05/19 07:12:41;;;;;;;5.63;4.90;;;;;;;19.45;57.13;101780.97;5016644;28;20767;-53
2022/05/19 07:15:08;;;;;;;5.28;4.45;;;;;;;19.46;57.18;101782.72;5024378;28;20252;-54
2022/05/19 07:17:34;;;;;;;5.63;5.22;;;;;;;19.54;57.01;101777.22;5022784;28;20232;-52
2022/05/19 07:22:46;;;;;;;10.15;5.57;;;;;;;19.88;55.54;101766.72;5023806;28;20244;-52
2022/05/19 07:25:13;;;;;;;5.53;4.85;;;;;;;19.90;55.62;101764.91;5025543;28;20239;-53
2022/05/19 07:27:39;;;;;;;5.88;5.13;;;;;;;19.92;56.16;101763.06;5018723;28;20233;-54
2022/05/19 07:30:07;;;;;;;6.35;4.10;;;;;;;19.97;55.96;101763.84;5025194;28;20259;-54
2022/05/19 07:32:33;;;;;;;11.52;5.10;;;;;;;20.09;55.71;101759.13;5015254;28;20232;-54
2022/05/19 07:35:00;;;;;;;6.57;4.65;;;;;;;20.26;55.37;101759.59;5026326;28;20263;-52
2022/05/19 07:37:26;;;;;;;13.68;4.82;;;;;;;20.41;55.15;101756.53;5016594;28;20291;-51
2022/05/19 07:39:54;;;;;;;5.22;4.60;;;;;;;20.43;55.51;101757.38;5018499;28;20236;-52
2022/05/19 07:42:21;;;;;;;5.55;5.15;;;;;;;20.56;54.63;101757.94;5025220;28;20730;-52
2022/05/19 07:44:48;;;;;;;8.27;5.47;;;;;;;20.57;54.56;101748.16;5025521;28;20691;-53
2022/05/19 07:47:15;;;;;;;4.97;4.47;;;;;;;20.64;54.78;101747.97;5015337;28;20289;-53
2022/05/19 07:49:42;;;;;;;5.93;4.88;;;;;;;20.80;55.21;101753.75;5022113;28;20240;-52
2022/05/19 07:52:09;;;;;;;6.22;4.95;;;;;;;20.97;53.91;101753.28;5017683;28;20265;-52
2022/05/19 07:54:35;;;;;;;5.45;4.95;;;;;;;21.10;54.19;101748.50;5026610;28;20785;-53
2022/05/19 07:57:04;;;;;;;4.78;4.40;;;;;;;21.21;53.36;101741.03;5018429;28;20491;-51
2022/05/19 07:59:30;;;;;;;4.75;4.40;;;;;;;21.32;54.00;101746.06;5016403;28;20237;-52
2022/05/19 08:01:57;;;;;;;5.63;3.90;;;;;;;21.36;53.77;101745.97;5022307;28;20232;-52
2022/05/19 08:04:25;;;;;;;5.68;4.97;;;;;;;21.52;53.86;101750.88;5018393;28;20763;-52
2022/05/19 08:06:52;;;;;;;10.27;5.03;;;;;;;21.59;52.52;101757.78;5021522;28;20825;-52
2022/05/19 08:12:04;;;;;;;5.00;4.45;;;;;;;21.82;53.03;101752.56;5013715;28;20240;-52
2022/05/19 08:17:17;;;;;;;5.45;4.97;;;;;;;22.06;51.60;101747.34;5019169;28;20307;-54
2022/05/19 08:19:45;;;;;;;5.10;4.00;;;;;;;22.19;51.81;101743.41;5020544;28;20696;-51
2022/05/19 08:22:11;;;;;;;10.02;7.28;;;;;;;22.29;50.60;101747.50;5018860;28;20261;-52
2022/05/19 08:24:38;;;;;;;8.25;6.47;;;;;;;22.52;50.18;101729.78;5012215;28;20229;-53
2022/05/19 08:27:06;;;;;;;10.07;5.45;;;;;;;22.48;50.82;101733.50;5016760;28;20232;-53
2022/05/19 08:29:34;;;;;;;6.93;4.38;;;;;;;22.69;50.82;101743.44;5023736;28;20232;-52
2022/05/19 08:32:01;;;;;;;4.70;4.30;;;;;;;22.77;50.38;101736.00;5012794;28;20235;-52
2022/05/19 08:34:28;;;;;;;5.10;3.75;;;;;;;22.83;49.91;101730.44;5023360;28;20720;-53
2022/05/19 08:36:54;;;;;;;5.03;3.90;;;;;;;23.01;49.41;101739.63;5016363;28;20512;-52
2022/05/19 08:39:22;;;;;;;4.68;4.07;;;;;;;23.17;48.86;101731.91;5022636;28;20306;-53
2022/05/19 08:41:51;;;;;;;4.30;3.90;;;;;;;23.26;49.60;101734.22;5018703;28;20233;-52
2022/05/19 08:44:24;;;;;;;4.72;4.28;;;;;;;23.49;49.74;101738.72;5022186;28;20695;-52
2022/05/19 08:46:52;;;;;;;6.10;4.38;;;;;;;23.73;47.18;101738.72;5017055;28;20232;-50
2022/05/19 08:49:24;;;;;;;4.53;3.90;;;;;;;23.78;47.17;101732.22;5018651;28;20236;-52
2022/05/19 08:51:56;;;;;;;4.47;4.05;;;;;;;23.75;47.23;101732.34;5021421;28;20240;-53
2022/05/19 08:54:24;;;;;;;4.85;3.90;;;;;;;24.02;46.53;101724.13;5015951;28;20243;-54
2022/05/19 08:56:56;;;;;;;3.75;3.45;;;;;;;24.13;46.02;101726.38;5020985;28;20235;-52
2022/05/19 08:59:35;;;;;;;4.53;4.03;;;;;;;24.34;46.01;101722.75;5015692;28;20233;-53
2022/05/19 09:02:05;;;;;;;3.95;3.55;;;;;;;24.39;45.25;101725.25;5020800;28;20315;-52
2022/05/19 09:04:41;;;;;;;9.13;4.07;;;;;;;24.49;45.07;101729.31;5023929;28;20637;-51
2022/05/19 09:10:12;;;;;;;10.07;3.97;;;;;;;24.62;44.69;101724.28;5019144;28;20263;-52
2022/05/19 09:12:39;;;;;;;5.90;3.67;;;;;;;24.58;45.03;101707.44;5019006;28;20236;-51
2022/05/19 09:15:10;;;;;;;4.03;3.67;;;;;;;24.97;44.22;101714.66;5026896;28;20227;-54
2022/05/19 09:17:40;;;;;;;6.22;3.63;;;;;;;25.05;43.88;101712.47;5024047;28;20239;-54
2022/05/19 09:20:10;;;;;;;5.18;4.20;;;;;;;24.99;44.46;101710.97;5021477;28;20438;-52
2022/05/19 09:22:37;;;;;;;4.72;4.32;;;;;;;25.28;44.66;101707.91;5016129;28;20332;-52
2022/05/19 09:25:05;;;;;;;6.25;3.88;;;;;;;25.48;43.45;101710.50;5025672;28;20912;-51
2022/05/19 09:27:34;;;;;;;5.82;4.25;;;;;;;25.66;42.58;101709.63;5024615;28;20252;-52
2022/05/19 09:30:01;;;;;;;3.70;3.28;;;;;;;25.81;42.40;101704.47;5020236;28;20638;-50
2022/05/19 09:32:30;;;;;;;3.78;3.25;;;;;;;25.79;42.30;101692.88;5017423;28;20244;-51
2022/05/19 09:35:05;;;;;;;6.53;3.50;;;;;;;25.81;42.85;101696.41;5019550;28;20232;-52
2022/05/19 09:37:38;;;;;;;3.40;3.10;;;;;;;26.00;42.09;101699.91;5024067;28;20236;-51
2022/05/19 09:40:20;;;;;;;6.70;3.58;;;;;;;26.02;42.07;101706.09;5026185;28;20229;-53
2022/05/19 09:42:53;;;;;;;6.00;3.78;;;;;;;25.83;42.08;101706.13;5024074;28;20709;-53
2022/05/19 09:45:21;;;;;;;5.43;4.35;;;;;;;25.69;42.25;101697.81;5025049;28;20238;-53
2022/05/19 09:47:50;;;;;;;6.68;3.90;;;;;;;25.57;42.47;101704.69;5027909;28;20256;-53
2022/05/19 09:50:20;;;;;;;3.80;3.45;;;;;;;25.54;42.49;101704.81;5020219;28;20710;-52
2022/05/19 09:52:47;;;;;;;3.90;3.60;;;;;;;25.74;41.27;101700.31;5019570;28;20228;-51
2022/05/19 09:55:16;;;;;;;3.75;3.45;;;;;;;25.94;41.10;101695.72;5024137;28;20307;-50
2022/05/19 09:57:45;;;;;;;4.55;4.03;;;;;;;26.01;41.17;101698.97;5022879;28;20237;-53
2022/05/19 10:00:22;;;;;;;4.10;3.70;;;;;;;26.13;40.49;101692.94;5022368;28;20805;-52
2022/05/19 10:02:52;;;;;;;5.25;3.95;;;;;;;26.23;40.90;101689.81;5025908;28;20247;-53
2022/05/19 10:05:23;;;;;;;3.80;3.50;;;;;;;26.29;40.63;101684.97;5021391;28;20236;-53
2022/05/19 10:07:51;;;;;;;3.72;3.42;;;;;;;26.35;40.82;101681.06;5021314;28;20225;-52
2022/05/19 10:10:21;;;;;;;4.10;3.70;;;;;;;26.69;39.89;101690.13;5019929;28;20348;-53
2022/05/19 10:12:49;;;;;;;4.28;3.70;;;;;;;26.95;39.22;101676.09;5025955;28;20259;-52
2022/05/19 10:15:18;;;;;;;3.60;3.30;;;;;;;27.12;38.74;101677.88;5022138;28;20314;-55
2022/05/19 10:17:53;;;;;;;8.43;3.63;;;;;;;27.05;38.50;101663.84;5023458;28;20262;-53
2022/05/19 10:20:21;;;;;;;4.05;3.75;;;;;;;27.32;38.42;101668.69;5014693;28;20219;-51
2022/05/19 10:23:01;;;;;;;9.43;4.10;;;;;;;27.24;38.05;101668.25;5023627;28;20252;-51
2022/05/19 10:25:42;;;;;;;4.03;2.78;;;;;;;27.43;38.70;101650.06;5025054;28;20470;-52
2022/05/19 10:31:13;;;;;;;6.72;3.92;;;;;;;27.41;40.00;101648.41;5021111;28;20252;-52
2022/05/19 10:33:57;;;;;;;3.60;3.30;;;;;;;27.51;37.73;101647.78;5025794;28;20235;-53
2022/05/19 10:36:27;;;;;;;3.45;3.25;;;;;;;27.36;38.30;101641.47;5021487;28;20236;-51
2022/05/19 10:39:04;;;;;;;4.75;3.17;;;;;;;27.46;38.56;101643.63;5026071;28;20285;-52
2022/05/19 10:41:43;;;;;;;6.22;4.22;;;;;;;27.31;38.81;101634.59;5018361;28;20236;-52
2022/05/19 10:44:21;;;;;;;3.42;3.22;;;;;;;27.49;38.84;101632.69;5023955;28;20286;-53
2022/05/19 10:46:54;;;;;;;6.18;3.85;;;;;;;27.78;38.63;101636.41;5025484;28;20251;-52
2022/05/19 10:49:46;;;;;;;4.43;3.10;;;;;;;27.76;37.43;101635.59;5020057;28;20448;-50
2022/05/19 10:52:18;;;;;;;5.18;3.42;;;;;;;27.90;37.00;101619.47;5019052;28;20325;-52
2022/05/19 10:54:57;;;;;;;6.35;3.22;;;;;;;27.92;36.66;101622.94;5026230;28;20234;-52
2022/05/19 10:57:50;;;;;;;5.72;2.63;;;;;;;27.88;36.60;101624.09;5018557;28;20278;-53
2022/05/19 11:00:21;;;;;;;3.92;3.40;;;;;;;27.72;36.58;101621.38;5017337;28;20230;-52
2022/05/19 11:03:27;;;;;;;4.75;3.38;;;;;;;28.05;36.72;101609.59;5013408;28;20316;-52
2022/05/19 11:06:06;;;;;;;3.78;3.10;;;;;;;28.41;35.16;101611.91;5025759;28;20602;-51
2022/05/19 11:08:46;;;;;;;3.90;3.35;;;;;;;28.68;34.60;101611.16;5024432;28;20228;-52
2022/05/19 11:11:19;;;;;;;5.72;5.15;;;;;;;28.76;33.84;101609.69;5026121;28;20274;-52
2022/05/19 11:13:58;;;;;;;3.45;3.15;;;;;;;28.62;34.36;101600.72;5016654;28;20258;-53
2022/05/19 11:16:34;;;;;;;3.92;2.75;;;;;;;28.90;34.01;101603.38;5021097;28;20286;-52
2022/05/19 11:19:04;;;;;;;3.78;3.33;;;;;;;28.99;33.76;101597.44;5019944;28;20291;-55
2022/05/19 11:21:36;;;;;;;5.68;3.15;;;;;;;28.67;33.71;101601.28;5024579;28;20236;-53
2022/05/19 11:24:07;;;;;;;4.70;3.17;;;;;;;28.48;33.38;101590.78;5014584;28;20275;-52
2022/05/19 11:26:38;;;;;;;3.08;2.88;;;;;;;28.49;34.38;101597.91;5020832;28;20233;-52
2022/05/19 11:29:14;;;;;;;4.38;3.30;;;;;;;28.37;33.81;101588.72;5017223;28;20323;-52
2022/05/19 11:31:45;;;;;;;4.22;3.10;;;;;;;28.24;34.38;101587.72;5021871;28;20779;-51
2022/05/19 11:34:20;;;;;;;4.10;3.30;;;;;;;28.16;34.91;101584.63;5025705;28;20786;-52
2022/05/19 11:36:54;;;;;;;4.25;3.45;;;;;;;28.17;34.93;101580.97;5017936;28;20324;-52
2022/05/19 11:39:25;;;;;;;5.95;3.22;;;;;;;27.84;34.63;101573.97;5020885;28;20595;-53
2022/05/19 11:41:53;;;;;;;6.63;3.35;;;;;;;27.79;35.04;101571.53;5025137;28;20653;-52
2022/05/19 11:44:22;;;;;;;3.70;2.78;;;;;;;28.09;34.25;101577.88;5027176;28;20283;-51
2022/05/19 11:46:52;;;;;;;3.83;2.85;;;;;;;28.18;34.30;101566.50;5020501;28;20232;-52